Time;durP1;ratioP1;P1;durP2;ratioP2;P2;SDS_P1;SDS_P2;PMS_P1;PMS_P2;Temp;Humidity;BMP_temperature;BMP_pressure;BME280_temperature;BME280_humidity;BME280_pressure;Samples;Min_cycle;Max_cycle;Signal;HPM_P1;HPM_P2
2023/12/13 00:01:32;;;;;;;1.25;1.25;;;;;;;6.13;96.96;95868.88;5002202;28;20046;-74
2023/12/13 00:04:00;;;;;;;1.00;1.00;;;;;;;6.15;96.85;95866.03;5005187;28;20045;-74
2023/12/13 00:06:29;;;;;;;0.98;0.98;;;;;;;6.15;96.63;95866.03;5012431;28;20068;-75
2023/12/13 00:08:56;;;;;;;1.23;1.23;;;;;;;6.17;96.86;95870.09;5005708;28;20073;-74
2023/12/13 00:11:24;;;;;;;0.75;0.75;;;;;;;6.18;96.40;95855.84;5007265;28;20511;-75
2023/12/13 00:13:53;;;;;;;0.98;0.98;;;;;;;6.20;96.38;95859.09;5011065;28;20065;-76
2023/12/13 00:16:21;;;;;;;1.02;1.02;;;;;;;6.21;96.22;95854.63;5001149;28;20118;-75
2023/12/13 00:18:49;;;;;;;0.70;0.70;;;;;;;6.23;96.15;95858.66;5005967;28;20061;-74
2023/12/13 00:21:17;;;;;;;1.02;1.02;;;;;;;6.23;96.00;95857.84;5000976;28;20043;-76
2023/12/13 00:23:46;;;;;;;0.95;0.95;;;;;;;6.23;96.18;95863.97;5016302;28;20046;-75
2023/12/13 00:26:14;;;;;;;1.15;1.15;;;;;;;6.26;95.88;95855.59;5012404;28;20100;-73
2023/12/13 00:28:42;;;;;;;0.95;0.95;;;;;;;6.25;95.84;95855.81;5009518;28;20074;-73
2023/12/13 00:31:11;;;;;;;1.17;1.17;;;;;;;6.25;96.34;95851.31;5002965;28;20049;-73
2023/12/13 00:33:39;;;;;;;0.88;0.88;;;;;;;6.28;95.82;95846.63;5005131;28;20071;-73
2023/12/13 00:36:08;;;;;;;0.90;0.90;;;;;;;6.25;95.89;95843.38;5008547;28;20066;-73
2023/12/13 00:38:35;;;;;;;1.00;1.00;;;;;;;6.26;95.70;95847.66;5001987;28;20368;-73
2023/12/13 00:41:03;;;;;;;1.48;1.48;;;;;;;6.28;95.17;95844.81;4998554;28;20205;-74
2023/12/13 00:43:32;;;;;;;0.88;0.88;;;;;;;6.28;95.45;95838.69;5000900;28;20046;-73
2023/12/13 00:45:59;;;;;;;0.60;0.60;;;;;;;6.24;95.59;95849.69;5006384;28;20123;-73
2023/12/13 00:48:28;;;;;;;0.70;0.70;;;;;;;6.26;95.58;95847.66;5010331;28;20065;-73
2023/12/13 00:50:56;;;;;;;0.65;0.65;;;;;;;6.26;95.56;95863.56;5003154;28;20046;-73
2023/12/13 00:53:23;;;;;;;0.20;0.20;;;;;;;6.25;95.38;95861.09;5009534;28;20425;-74
2023/12/13 00:55:53;;;;;;;0.77;0.77;;;;;;;6.28;95.70;95857.22;5009035;28;20118;-73
2023/12/13 00:58:21;;;;;;;1.00;1.00;;;;;;;6.31;95.57;95860.28;5006886;28;20369;-74
2023/12/13 01:00:48;;;;;;;0.90;0.90;;;;;;;6.30;95.75;95863.13;5017416;28;20061;-73
2023/12/13 01:03:16;;;;;;;1.10;1.10;;;;;;;6.29;95.80;95856.22;5010112;28;20494;-72
2023/12/13 01:05:46;;;;;;;0.63;0.63;;;;;;;6.29;95.68;95853.56;5013918;28;20056;-72
2023/12/13 01:08:13;;;;;;;0.80;0.80;;;;;;;6.28;95.96;95846.63;5002948;28;20050;-72
2023/12/13 01:10:41;;;;;;;0.93;0.93;;;;;;;6.28;96.03;95854.59;5004985;28;20038;-73
2023/12/13 01:13:09;;;;;;;0.80;0.80;;;;;;;6.29;96.19;95832.38;5004541;28;20057;-74
2023/12/13 01:15:37;;;;;;;1.05;1.05;;;;;;;6.29;96.29;95843.78;5007233;28;20053;-74
2023/12/13 01:18:05;;;;;;;0.20;0.20;;;;;;;6.27;96.37;95843.16;5009426;28;20510;-73
2023/12/13 01:20:32;;;;;;;1.00;1.00;;;;;;;6.31;96.33;95848.88;4998741;28;20117;-73
2023/12/13 01:23:01;;;;;;;1.25;1.25;;;;;;;6.33;95.84;95834.41;5007238;28;20047;-74
2023/12/13 01:25:29;;;;;;;0.73;0.73;;;;;;;6.31;95.97;95838.28;5006011;28;20125;-73
2023/12/13 01:27:57;;;;;;;0.75;0.75;;;;;;;6.31;95.99;95847.03;5011139;28;20384;-73
2023/12/13 01:30:26;;;;;;;0.85;0.85;;;;;;;6.31;95.91;95851.53;5024244;28;20046;-73
2023/12/13 01:32:54;;;;;;;0.82;0.82;;;;;;;6.34;95.67;95851.06;5011700;28;20060;-73
2023/12/13 01:35:22;;;;;;;0.77;0.77;;;;;;;6.31;95.75;95848.88;5006652;28;20049;-73
2023/12/13 01:37:49;;;;;;;1.10;1.10;;;;;;;6.30;95.64;95848.06;5004857;28;20048;-72
2023/12/13 01:40:18;;;;;;;0.63;0.63;;;;;;;6.31;95.91;95843.56;5013210;28;20050;-73
2023/12/13 01:42:46;;;;;;;0.80;0.80;;;;;;;6.31;95.91;95844.38;5012985;28;20517;-73
2023/12/13 01:45:14;;;;;;;1.20;1.20;;;;;;;6.33;95.97;95842.34;5012506;28;20050;-72
2023/12/13 01:47:42;;;;;;;0.60;0.60;;;;;;;6.39;95.71;95835.38;5008748;28;20038;-73
2023/12/13 01:50:10;;;;;;;1.08;1.08;;;;;;;6.35;96.03;95834.16;5000434;28;20046;-73
2023/12/13 01:52:38;;;;;;;1.00;1.00;;;;;;;6.37;96.24;95837.41;5000725;28;20052;-72
2023/12/13 01:55:08;;;;;;;1.42;1.42;;;;;;;6.40;96.10;95829.06;5008491;28;20081;-71
2023/12/13 01:57:37;;;;;;;0.85;0.85;;;;;;;6.40;96.28;95821.09;5013060;28;20053;-71
2023/12/13 02:00:06;;;;;;;0.30;0.30;;;;;;;6.43;96.34;95831.28;5007381;28;20422;-70
2023/12/13 02:02:37;;;;;;;0.70;0.70;;;;;;;6.49;96.34;95833.88;5003090;28;20046;-71
2023/12/13 02:05:06;;;;;;;0.82;0.82;;;;;;;6.51;96.45;95831.84;5005971;28;20037;-71
2023/12/13 02:07:34;;;;;;;0.85;0.85;;;;;;;6.56;96.33;95833.84;4998483;28;20038;-71
2023/12/13 02:10:02;;;;;;;0.80;0.80;;;;;;;6.54;96.18;95841.22;5009915;28;20073;-71
2023/12/13 02:12:30;;;;;;;1.15;1.15;;;;;;;6.51;96.04;95834.50;5009647;28;20494;-72
2023/12/13 02:14:59;;;;;;;0.22;0.22;;;;;;;6.50;96.32;95829.41;5012349;28;20481;-71
2023/12/13 02:17:26;;;;;;;0.73;0.73;;;;;;;6.49;96.78;95835.72;5005198;28;20041;-72
2023/12/13 02:19:54;;;;;;;0.90;0.90;;;;;;;6.47;96.76;95835.13;5010432;28;20530;-72
2023/12/13 02:22:23;;;;;;;1.00;1.00;;;;;;;6.46;96.64;95830.84;5006097;28;20081;-72
2023/12/13 02:24:53;;;;;;;0.98;0.98;;;;;;;6.50;97.03;95827.56;5000724;28;20593;-72
2023/12/13 02:27:21;;;;;;;0.85;0.85;;;;;;;6.52;97.00;95835.31;5003344;28;20038;-72
2023/12/13 02:29:49;;;;;;;0.85;0.85;;;;;;;6.58;96.63;95829.16;5010966;28;20042;-74
2023/12/13 02:32:17;;;;;;;0.80;0.80;;;;;;;6.54;97.01;95827.97;5010013;28;20053;-72
2023/12/13 02:34:44;;;;;;;0.90;0.90;;;;;;;6.55;97.09;95834.84;4997145;28;20046;-75
2023/12/13 02:37:12;;;;;;;0.77;0.77;;;;;;;6.63;96.88;95830.16;5008011;28;20074;-74
2023/12/13 02:39:41;;;;;;;0.70;0.70;;;;;;;6.69;96.59;95823.16;5008457;28;20097;-73
2023/12/13 02:42:09;;;;;;;0.75;0.75;;;;;;;6.75;96.55;95819.63;5005611;28;20056;-72
2023/12/13 02:44:38;;;;;;;0.80;0.80;;;;;;;6.78;96.21;95813.91;5006173;28;20042;-72
2023/12/13 02:47:06;;;;;;;1.08;1.08;;;;;;;6.76;96.42;95821.28;5004449;28;20546;-75
2023/12/13 02:49:33;;;;;;;0.30;0.30;;;;;;;6.81;96.10;95818.81;5011976;28;20407;-74
2023/12/13 02:52:01;;;;;;;0.93;0.93;;;;;;;6.77;96.22;95820.25;5002929;28;20048;-74
2023/12/13 02:54:29;;;;;;;0.98;0.98;;;;;;;6.77;96.37;95825.53;5011988;28;20039;-73
2023/12/13 02:56:57;;;;;;;0.63;0.63;;;;;;;6.77;96.68;95822.09;5001900;28;20038;-72
2023/12/13 02:59:25;;;;;;;0.30;0.30;;;;;;;6.74;96.61;95815.41;5006213;28;20465;-73
2023/12/13 03:01:53;;;;;;;0.68;0.68;;;;;;;6.85;96.47;95824.50;5017794;28;20042;-73
2023/12/13 03:04:20;;;;;;;0.85;0.85;;;;;;;6.94;95.77;95812.59;5014225;28;20057;-71
2023/12/13 03:06:49;;;;;;;0.80;0.80;;;;;;;6.96;95.68;95816.63;5004488;28;20042;-72
2023/12/13 03:09:17;;;;;;;0.80;0.80;;;;;;;6.98;95.56;95809.28;5009219;28;20049;-72
2023/12/13 03:11:44;;;;;;;0.77;0.77;;;;;;;6.93;95.57;95811.78;5016797;28;20085;-72
2023/12/13 03:14:13;;;;;;;0.52;0.52;;;;;;;7.00;95.65;95811.72;5013281;28;20141;-74
2023/12/13 03:16:41;;;;;;;0.88;0.88;;;;;;;6.93;95.48;95810.97;5001486;28;20049;-73
2023/12/13 03:19:08;;;;;;;0.70;0.70;;;;;;;6.86;96.00;95808.34;5008079;28;20056;-72
2023/12/13 03:21:36;;;;;;;0.90;0.90;;;;;;;6.82;96.25;95799.22;5013559;28;20045;-74
2023/12/13 03:24:04;;;;;;;0.75;0.75;;;;;;;6.80;96.38;95797.81;5001417;28;20046;-75
2023/12/13 03:26:31;;;;;;;0.40;0.40;;;;;;;6.78;96.39;95802.50;5000685;28;20414;-75
2023/12/13 03:28:59;;;;;;;0.73;0.73;;;;;;;6.78;96.38;95802.50;5001745;28;20038;-73
2023/12/13 03:31:28;;;;;;;0.95;0.95;;;;;;;6.80;96.41;95800.44;5011203;28;20042;-72
2023/12/13 03:33:55;;;;;;;0.70;0.70;;;;;;;6.79;96.37;95804.13;4997391;28;20092;-75
2023/12/13 03:36:23;;;;;;;0.90;0.90;;;;;;;6.78;96.22;95805.16;5004037;28;20483;-74
2023/12/13 03:38:51;;;;;;;0.60;0.60;;;;;;;6.78;96.23;95811.28;5006396;28;20050;-74
2023/12/13 03:41:18;;;;;;;0.80;0.80;;;;;;;6.78;96.15;95808.63;4999180;28;20052;-75
2023/12/13 03:43:46;;;;;;;0.80;0.80;;;;;;;6.80;96.74;95805.75;5005117;28;20583;-72
2023/12/13 03:46:14;;;;;;;1.08;1.08;;;;;;;6.81;96.69;95807.38;5006134;28;20060;-74
2023/12/13 03:48:43;;;;;;;0.73;0.73;;;;;;;6.80;96.29;95811.88;5006092;28;20088;-75
2023/12/13 03:51:10;;;;;;;0.70;0.70;;;;;;;6.77;96.05;95806.19;5007327;28;20517;-72
2023/12/13 03:53:39;;;;;;;0.93;0.93;;;;;;;6.80;96.44;95809.22;5011881;28;20077;-72
2023/12/13 03:56:07;;;;;;;0.75;0.75;;;;;;;6.77;96.11;95801.69;5017379;28;20041;-73
2023/12/13 03:58:35;;;;;;;0.75;0.75;;;;;;;6.77;95.99;95801.69;5003980;28;20049;-73
2023/12/13 04:01:03;;;;;;;0.90;0.90;;;;;;;6.79;96.17;95804.13;5006744;28;20081;-73
2023/12/13 04:03:31;;;;;;;0.90;0.90;;;;;;;6.79;95.94;95804.94;5004000;28;20039;-76
2023/12/13 04:06:00;;;;;;;0.63;0.63;;;;;;;6.81;96.17;95791.47;5014464;28;20069;-73
2023/12/13 04:08:28;;;;;;;0.15;0.15;;;;;;;6.78;95.70;95787.41;5012089;28;20472;-73
2023/12/13 04:10:55;;;;;;;0.73;0.73;;;;;;;6.81;95.88;95786.97;4996928;28;20061;-74
2023/12/13 04:13:23;;;;;;;0.55;0.55;;;;;;;6.82;94.48;95795.75;5004915;28;20046;-75
2023/12/13 04:15:51;;;;;;;0.60;0.60;;;;;;;6.79;93.95;95793.53;5010906;28;20045;-73
2023/12/13 04:18:18;;;;;;;0.93;0.93;;;;;;;6.81;94.23;95802.06;5006708;28;20047;-75
2023/12/13 04:20:46;;;;;;;0.93;0.93;;;;;;;6.82;94.08;95787.81;5003455;28;20070;-72
2023/12/13 04:23:15;;;;;;;0.70;0.70;;;;;;;6.84;94.48;95794.53;5008430;28;20050;-73
2023/12/13 04:25:43;;;;;;;0.30;0.30;;;;;;;6.84;94.52;95794.53;5003739;28;20436;-74
2023/12/13 04:28:10;;;;;;;0.30;0.30;;;;;;;6.88;94.80;95792.22;5012741;28;20439;-75
2023/12/13 04:30:38;;;;;;;0.60;0.60;;;;;;;6.87;94.36;95791.41;5015545;28;20049;-74
2023/12/13 04:33:06;;;;;;;0.77;0.77;;;;;;;6.89;94.79;95797.31;5013685;28;20050;-73
2023/12/13 04:35:34;;;;;;;0.90;0.90;;;;;;;6.92;94.63;95796.91;5013007;28;20038;-74
2023/12/13 04:38:01;;;;;;;0.85;0.85;;;;;;;6.93;94.68;95798.53;5013437;28;20100;-75
2023/12/13 04:40:31;;;;;;;0.82;0.82;;;;;;;6.96;94.88;95798.06;5010628;28;20050;-76
2023/12/13 04:43:00;;;;;;;0.20;0.20;;;;;;;6.97;94.64;95794.38;5011414;28;20434;-77
2023/12/13 04:45:28;;;;;;;0.70;0.70;;;;;;;6.97;94.70;95797.03;5009056;28;21737;-74
2023/12/13 04:47:56;;;;;;;0.70;0.70;;;;;;;6.97;94.62;95797.03;5008374;28;20046;-74
2023/12/13 04:50:23;;;;;;;0.68;0.68;;;;;;;6.97;94.53;95797.03;5013360;28;20041;-73
2023/12/13 04:52:51;;;;;;;0.68;0.68;;;;;;;6.98;94.50;95793.38;5005795;28;20045;-73
2023/12/13 04:55:19;;;;;;;0.52;0.52;;;;;;;6.98;94.19;95787.25;5012947;28;20053;-73
2023/12/13 04:57:48;;;;;;;0.80;0.80;;;;;;;6.97;94.54;95791.75;5012547;28;20076;-72
2023/12/13 05:00:16;;;;;;;0.73;0.73;;;;;;;6.93;93.69;95793.22;5014676;28;20555;-73
2023/12/13 05:02:44;;;;;;;0.20;0.20;;;;;;;6.95;94.36;95791.16;5009443;28;20415;-72
2023/12/13 05:05:12;;;;;;;0.75;0.75;;;;;;;6.96;94.29;95792.75;5004373;28;20495;-72
2023/12/13 05:07:39;;;;;;;0.80;0.80;;;;;;;6.95;93.96;95788.50;5006444;28;20419;-74
2023/12/13 05:10:08;;;;;;;0.85;0.85;;;;;;;6.95;94.04;95787.69;5014818;28;20506;-71
2023/12/13 05:12:36;;;;;;;1.17;1.17;;;;;;;6.92;93.93;95783.63;5019386;28;20049;-71
2023/12/13 05:15:06;;;;;;;0.70;0.70;;;;;;;6.92;93.88;95778.34;5001606;28;20050;-71
2023/12/13 05:17:33;;;;;;;0.90;0.90;;;;;;;6.93;94.22;95785.25;5006893;28;20513;-74
2023/12/13 05:20:03;;;;;;;0.75;0.75;;;;;;;6.95;94.21;95788.50;5009235;28;20044;-71
2023/12/13 05:22:31;;;;;;;0.73;0.73;;;;;;;6.94;94.20;95792.19;5009216;28;20526;-71
2023/12/13 05:24:59;;;;;;;0.20;0.20;;;;;;;6.95;94.09;95799.13;5011732;28;20497;-72
2023/12/13 05:27:27;;;;;;;0.85;0.85;;;;;;;6.94;94.10;95792.19;5001404;28;20042;-71
2023/12/13 05:29:54;;;;;;;0.98;0.98;;;;;;;6.97;94.16;95790.94;5009014;28;20038;-72
2023/12/13 05:32:23;;;;;;;0.93;0.93;;;;;;;6.98;93.70;95789.91;5006404;28;20050;-72
2023/12/13 05:34:51;;;;;;;0.95;0.95;;;;;;;7.03;93.83;95786.63;5012929;28;20125;-72
2023/12/13 05:37:19;;;;;;;0.80;0.80;;;;;;;6.98;93.47;95800.50;5005078;28;20078;-74
2023/12/13 05:39:47;;;;;;;0.65;0.65;;;;;;;6.98;93.41;95793.38;5010185;28;20053;-72
2023/12/13 05:42:14;;;;;;;0.65;0.65;;;;;;;7.06;92.96;95789.63;5002334;28;20075;-72
2023/12/13 05:44:42;;;;;;;0.30;0.30;;;;;;;6.97;92.88;95785.63;5010569;28;20443;-74
2023/12/13 05:47:10;;;;;;;0.77;0.77;;;;;;;6.90;92.97;95788.34;5003082;28;20053;-72
2023/12/13 05:49:39;;;;;;;0.82;0.82;;;;;;;6.82;93.52;95791.25;5003203;28;20113;-72
2023/12/13 05:52:08;;;;;;;1.23;1.23;;;;;;;6.80;93.79;95789.84;5003831;28;20407;-72
2023/12/13 05:54:35;;;;;;;0.90;0.90;;;;;;;6.83;94.14;95794.72;5000581;28;20054;-72
2023/12/13 05:57:04;;;;;;;0.95;0.95;;;;;;;6.87;93.72;95799.38;5008288;28;20087;-72
2023/12/13 05:59:32;;;;;;;0.88;0.88;;;;;;;6.85;93.82;95793.47;4997974;28;20399;-73
2023/12/13 06:01:59;;;;;;;0.88;0.88;;;;;;;6.88;93.76;95797.53;5005746;28;20073;-73
2023/12/13 06:04:27;;;;;;;1.08;1.08;;;;;;;6.93;93.49;95793.22;5008428;28;20041;-74
2023/12/13 06:06:56;;;;;;;0.85;0.85;;;;;;;6.88;93.59;95790.38;5003424;28;20075;-74
2023/12/13 06:09:23;;;;;;;1.17;1.17;;;;;;;6.85;93.53;95787.38;5004779;28;20045;-73
2023/12/13 06:11:51;;;;;;;0.93;0.93;;;;;;;6.88;93.40;95786.94;5005106;28;20122;-73
2023/12/13 06:14:18;;;;;;;0.70;0.70;;;;;;;6.94;93.05;95778.94;5004294;28;20539;-73
2023/12/13 06:16:46;;;;;;;0.77;0.77;;;;;;;6.94;92.65;95781.59;5005338;28;20081;-73
2023/12/13 06:19:14;;;;;;;0.95;0.95;;;;;;;7.00;92.19;95790.50;5000752;28;20045;-74
2023/12/13 06:21:41;;;;;;;0.80;0.80;;;;;;;6.91;92.45;95795.28;5022534;28;20052;-74
2023/12/13 06:24:10;;;;;;;0.80;0.80;;;;;;;6.84;92.76;95791.88;5000972;28;20046;-74
2023/12/13 06:26:38;;;;;;;0.95;0.95;;;;;;;6.81;92.58;95789.63;5022034;28;20129;-73
2023/12/13 06:29:05;;;;;;;0.90;0.90;;;;;;;6.81;92.61;95791.47;5001108;28;20121;-73
2023/12/13 06:31:33;;;;;;;0.60;0.60;;;;;;;6.81;92.39;95799.44;5002308;28;20061;-73
2023/12/13 06:34:00;;;;;;;0.88;0.88;;;;;;;6.82;92.42;95799.22;4997434;28;20054;-73
2023/12/13 06:36:29;;;;;;;0.40;0.40;;;;;;;6.83;92.05;95792.06;4994705;28;20403;-73
2023/12/13 06:38:56;;;;;;;1.10;1.10;;;;;;;6.84;92.24;95799.00;5005773;28;20044;-73
2023/12/13 06:41:26;;;;;;;1.10;1.05;;;;;;;6.87;92.14;95799.38;4998301;28;20566;-73
2023/12/13 06:43:53;;;;;;;0.22;0.22;;;;;;;7.00;91.68;95806.41;4995609;28;20446;-73
2023/12/13 06:46:22;;;;;;;0.70;0.70;;;;;;;6.99;91.53;95805.59;4995179;28;20046;-74
2023/12/13 06:48:51;;;;;;;1.20;1.20;;;;;;;6.99;91.50;95804.78;5003524;28;20545;-73
2023/12/13 06:51:19;;;;;;;0.75;0.75;;;;;;;6.95;91.50;95804.44;4992815;28;20058;-74
2023/12/13 06:53:47;;;;;;;0.30;0.30;;;;;;;6.92;91.61;95812.00;4999757;28;20438;-74
2023/12/13 06:56:14;;;;;;;0.70;0.70;;;;;;;6.94;91.55;95810.75;5005544;28;20521;-73
2023/12/13 06:58:43;;;;;;;0.95;0.95;;;;;;;6.99;91.70;95807.44;4999514;28;20065;-74
2023/12/13 07:01:11;;;;;;;0.70;0.70;;;;;;;6.96;91.55;95806.03;5001724;28;20046;-73
2023/12/13 07:03:39;;;;;;;0.75;0.75;;;;;;;7.05;91.58;95800.47;4997066;28;20046;-73
2023/12/13 07:06:07;;;;;;;0.80;0.80;;;;;;;7.02;91.45;95812.31;5006110;28;20495;-74
2023/12/13 07:08:34;;;;;;;0.80;0.80;;;;;;;7.17;91.09;95815.44;4996166;28;20042;-73
2023/12/13 07:11:03;;;;;;;0.65;0.65;;;;;;;7.12;91.00;95810.00;4998865;28;20089;-74
2023/12/13 07:13:31;;;;;;;1.23;1.23;;;;;;;7.16;90.81;95813.03;5000213;28;20098;-73
2023/12/13 07:16:00;;;;;;;0.73;0.73;;;;;;;7.16;90.96;95818.34;4994402;28;20104;-73
2023/12/13 07:18:27;;;;;;;0.85;0.85;;;;;;;7.15;90.87;95816.72;4998365;28;20061;-74
2023/12/13 07:20:55;;;;;;;1.13;1.13;;;;;;;7.10;91.20;95819.19;4999224;28;20410;-73
2023/12/13 07:23:25;;;;;;;1.08;1.08;;;;;;;7.06;91.58;95813.50;4998129;28;20053;-73
2023/12/13 07:25:52;;;;;;;0.80;0.80;;;;;;;7.03;91.87;95816.59;4997916;28;20499;-74
2023/12/13 07:28:20;;;;;;;0.68;0.68;;;;;;;7.04;91.64;95812.09;4996115;28;20046;-73
2023/12/13 07:30:48;;;;;;;0.32;0.32;;;;;;;7.06;91.62;95807.41;4999602;28;20443;-73
2023/12/13 07:33:34;;;;;;;0.90;0.90;;;;;;;7.07;91.76;95823.06;5005894;28;20058;-73
2023/12/13 07:36:02;;;;;;;1.25;1.25;;;;;;;7.09;91.77;95812.25;4999946;28;20045;-73
2023/12/13 07:38:30;;;;;;;0.80;0.80;;;;;;;7.12;91.73;95807.34;4995406;28;20070;-73
2023/12/13 07:40:58;;;;;;;1.02;1.02;;;;;;;7.08;91.74;95810.63;5023075;28;20525;-73
2023/12/13 07:43:26;;;;;;;0.80;0.80;;;;;;;7.10;91.57;95813.88;5015941;28;20104;-75
2023/12/13 07:45:55;;;;;;;1.02;1.02;;;;;;;7.10;91.52;95817.34;4997664;28;20051;-73
2023/12/13 07:48:22;;;;;;;1.10;1.10;;;;;;;7.06;91.95;95810.84;5002013;28;20049;-73
2023/12/13 07:50:59;;;;;;;1.13;1.13;;;;;;;7.06;91.79;95807.41;4995679;28;20062;-73
2023/12/13 07:53:27;;;;;;;0.77;0.77;;;;;;;7.06;91.84;95820.66;4995351;28;20042;-73
2023/12/13 07:55:55;;;;;;;0.95;0.95;;;;;;;7.06;92.14;95816.16;5003182;28;20038;-74
2023/12/13 07:58:23;;;;;;;0.80;0.80;;;;;;;7.08;91.85;95819.41;4993993;28;20057;-73
2023/12/13 08:00:50;;;;;;;0.70;0.70;;;;;;;7.10;92.11;95827.16;5001996;28;20037;-73
2023/12/13 08:03:18;;;;;;;1.10;1.10;;;;;;;7.16;92.12;95828.94;4998337;28;20069;-73
2023/12/13 08:05:45;;;;;;;0.98;0.98;;;;;;;7.17;91.98;95823.41;5005502;28;20049;-73
2023/12/13 08:08:15;;;;;;;0.75;0.75;;;;;;;7.17;91.92;95827.91;5001593;28;20133;-73
2023/12/13 08:10:46;;;;;;;0.90;0.90;;;;;;;7.16;92.32;95821.81;5002503;28;20052;-73
2023/12/13 08:13:14;;;;;;;1.10;1.10;;;;;;;7.16;92.25;95815.69;5003373;28;20693;-72
2023/12/13 08:15:44;;;;;;;0.65;0.65;;;;;;;7.20;92.50;95817.66;5002297;28;20116;-72
2023/12/13 08:18:11;;;;;;;1.02;1.02;;;;;;;7.15;92.44;95822.00;5003977;28;20145;-72
2023/12/13 08:20:40;;;;;;;1.05;1.05;;;;;;;7.21;92.39;95831.75;5023801;28;20030;-72
2023/12/13 08:23:08;;;;;;;0.75;0.75;;;;;;;7.19;92.82;95818.69;5003363;28;20049;-72
2023/12/13 08:25:38;;;;;;;1.30;1.30;;;;;;;7.27;92.27;95828.22;4995893;28;20046;-74
2023/12/13 08:28:06;;;;;;;1.00;1.00;;;;;;;7.26;92.54;95827.44;5000377;28;20037;-74
2023/12/13 08:30:33;;;;;;;0.98;0.98;;;;;;;7.22;92.59;95820.91;5002932;28;20073;-72
2023/12/13 08:33:01;;;;;;;0.88;0.88;;;;;;;7.31;92.42;95813.50;5001486;28;20046;-74
2023/12/13 08:35:29;;;;;;;0.90;0.90;;;;;;;7.26;92.27;95814.16;5002000;28;20038;-74
2023/12/13 08:37:56;;;;;;;0.90;0.90;;;;;;;7.24;92.25;95813.56;5006771;28;20054;-74
2023/12/13 08:40:24;;;;;;;0.93;0.93;;;;;;;7.27;92.29;95813.09;5001399;28;20450;-74
2023/12/13 08:42:53;;;;;;;0.77;0.77;;;;;;;7.30;92.30;95814.53;4996935;28;20500;-72
2023/12/13 08:45:21;;;;;;;0.93;0.93;;;;;;;7.24;92.58;95812.75;5000929;28;20050;-72
2023/12/13 08:47:48;;;;;;;1.17;1.17;;;;;;;7.23;93.02;95811.94;5003053;28;20491;-72
2023/12/13 08:50:16;;;;;;;0.85;0.85;;;;;;;7.34;92.55;95823.69;5003906;28;20145;-74
2023/12/13 08:52:43;;;;;;;0.98;0.98;;;;;;;7.33;92.29;95819.41;5002715;28;20523;-72
2023/12/13 08:55:11;;;;;;;0.95;0.95;;;;;;;7.40;92.03;95837.91;5003608;28;20133;-74
2023/12/13 08:57:39;;;;;;;1.10;1.10;;;;;;;7.43;91.74;95829.50;5002764;28;20125;-72
2023/12/13 09:00:10;;;;;;;0.70;0.70;;;;;;;7.49;91.28;95820.66;5026020;28;20395;-75
2023/12/13 09:02:39;;;;;;;0.90;0.90;;;;;;;7.45;91.57;95828.28;4995882;28;20042;-72
2023/12/13 09:05:08;;;;;;;1.25;1.25;;;;;;;7.35;91.64;95831.44;4998732;28;20050;-72
2023/12/13 09:07:36;;;;;;;0.85;0.85;;;;;;;7.33;92.26;95827.38;5003211;28;20186;-74
2023/12/13 09:10:08;;;;;;;0.93;0.93;;;;;;;7.36;91.82;95826.94;5008007;28;20092;-74
2023/12/13 09:12:37;;;;;;;0.40;0.40;;;;;;;7.37;91.84;95837.31;5007978;28;20388;-71
2023/12/13 09:15:07;;;;;;;0.90;0.90;;;;;;;7.37;91.82;95832.00;4999444;28;20503;-74
2023/12/13 09:17:36;;;;;;;1.48;1.48;;;;;;;7.39;91.94;95837.09;5010531;28;20125;-74
2023/12/13 09:20:09;;;;;;;0.95;0.95;;;;;;;7.42;92.08;95841.97;4997102;28;20080;-72
2023/12/13 09:22:37;;;;;;;1.10;1.10;;;;;;;7.45;91.82;95849.50;5001760;28;20093;-71
2023/12/13 09:25:06;;;;;;;0.88;0.88;;;;;;;7.54;90.35;95847.38;4998230;28;20392;-72
2023/12/13 09:27:33;;;;;;;0.90;0.90;;;;;;;7.48;90.27;95841.09;4997843;28;20133;-71
2023/12/13 09:30:02;;;;;;;0.90;0.90;;;;;;;7.46;90.27;95840.50;4994940;28;20125;-74
2023/12/13 09:32:29;;;;;;;0.73;0.73;;;;;;;7.50;90.81;95854.16;4997258;28;20396;-71
2023/12/13 09:34:58;;;;;;;0.28;0.28;;;;;;;7.49;90.48;95853.31;5005605;28;20470;-72
2023/12/13 09:37:26;;;;;;;0.85;0.85;;;;;;;7.51;90.77;95859.25;4997112;28;20074;-74
2023/12/13 09:39:54;;;;;;;1.15;1.15;;;;;;;7.50;91.15;95848.84;5004339;28;20056;-74
2023/12/13 09:42:30;;;;;;;1.00;1.00;;;;;;;7.60;90.99;95857.94;4995728;28;20046;-74
2023/12/13 09:44:59;;;;;;;0.68;0.68;;;;;;;7.61;90.58;95858.75;5003109;28;20563;-74
2023/12/13 09:47:27;;;;;;;0.93;0.93;;;;;;;7.54;91.48;95858.00;4994370;28;20077;-74
2023/12/13 09:49:55;;;;;;;0.88;0.88;;;;;;;7.62;91.24;95852.41;5026467;28;20076;-74
2023/12/13 09:52:25;;;;;;;0.90;0.90;;;;;;;7.64;91.68;95848.50;4996536;28;20042;-72
2023/12/13 09:54:53;;;;;;;0.85;0.85;;;;;;;7.64;92.15;95840.53;5001787;28;20049;-73
2023/12/13 09:57:21;;;;;;;1.13;1.13;;;;;;;7.60;92.06;95843.84;4993367;28;20117;-74
2023/12/13 09:59:48;;;;;;;0.90;0.90;;;;;;;7.58;92.17;95840.63;4998628;28;20125;-72
2023/12/13 10:02:17;;;;;;;0.70;0.70;;;;;;;7.61;92.41;95834.84;5004578;28;20033;-74
2023/12/13 10:04:45;;;;;;;1.40;1.40;;;;;;;7.64;92.58;95839.72;5009478;28;20495;-74
2023/12/13 10:07:13;;;;;;;0.80;0.80;;;;;;;7.66;92.21;95838.47;5003895;28;20058;-72
2023/12/13 10:09:42;;;;;;;0.30;0.30;;;;;;;7.72;91.60;95839.44;5001933;28;20517;-73
2023/12/13 10:12:12;;;;;;;0.90;0.90;;;;;;;7.70;91.02;95837.00;5002256;28;20121;-72
2023/12/13 10:14:39;;;;;;;0.75;0.75;;;;;;;7.72;91.45;95834.94;5003974;28;20042;-72
2023/12/13 10:17:07;;;;;;;0.80;0.80;;;;;;;7.72;91.61;95829.63;4998204;28;20061;-72
2023/12/13 10:19:46;;;;;;;1.00;1.00;;;;;;;7.77;91.57;95828.16;5001167;28;20042;-73
2023/12/13 10:22:16;;;;;;;0.88;0.88;;;;;;;7.83;91.31;95828.06;5005214;28;20046;-72
2023/12/13 10:24:46;;;;;;;0.73;0.73;;;;;;;7.90;89.91;95822.69;5006482;28;20045;-73
2023/12/13 10:27:14;;;;;;;0.90;0.90;;;;;;;7.96;90.03;95822.63;5019761;28;20051;-72
2023/12/13 10:29:41;;;;;;;0.80;0.80;;;;;;;8.06;89.51;95822.09;5004092;28;20048;-72
2023/12/13 10:32:09;;;;;;;0.63;0.63;;;;;;;8.07;89.27;95821.88;4998164;28;20070;-73
2023/12/13 10:34:38;;;;;;;0.82;0.82;;;;;;;8.14;89.27;95816.47;5002618;28;20045;-73
2023/12/13 10:37:06;;;;;;;1.13;1.13;;;;;;;8.23;87.83;95807.16;4997965;28;20503;-75
2023/12/13 10:39:33;;;;;;;0.75;0.75;;;;;;;8.38;86.52;95804.97;5001917;28;20364;-73
2023/12/13 10:42:04;;;;;;;0.82;0.82;;;;;;;8.52;84.88;95800.25;5000305;28;20484;-73
2023/12/13 10:44:32;;;;;;;1.02;1.02;;;;;;;8.66;83.13;95806.22;5007050;28;20070;-74
2023/12/13 10:47:06;;;;;;;1.05;1.05;;;;;;;8.72;82.37;95802.66;5009243;28;20054;-73
2023/12/13 10:49:35;;;;;;;1.20;1.20;;;;;;;8.84;82.13;95804.28;5006204;28;20038;-74
2023/12/13 10:52:04;;;;;;;0.20;0.20;;;;;;;8.93;81.01;95812.75;5001543;28;20447;-74
2023/12/13 10:54:32;;;;;;;1.10;1.10;;;;;;;8.88;80.28;95812.63;5006405;28;20043;-74
2023/12/13 10:57:00;;;;;;;1.13;1.13;;;;;;;8.80;80.08;95811.13;5011032;28;20050;-74
2023/12/13 10:59:29;;;;;;;0.80;0.80;;;;;;;8.82;79.97;95808.22;5001087;28;20048;-74
2023/12/13 11:01:58;;;;;;;0.63;0.63;;;;;;;8.89;79.24;95800.16;5001231;28;20058;-73
2023/12/13 11:04:29;;;;;;;0.70;0.70;;;;;;;8.93;79.20;95798.66;4999925;28;20077;-73
2023/12/13 11:07:02;;;;;;;0.82;0.82;;;;;;;9.00;78.78;95808.16;5008842;28;20529;-72
2023/12/13 11:09:37;;;;;;;0.70;0.70;;;;;;;8.97;78.25;95808.59;4995984;28;20042;-72
2023/12/13 11:12:09;;;;;;;1.02;1.02;;;;;;;8.95;77.31;95805.34;4999505;28;20042;-72
2023/12/13 11:14:40;;;;;;;0.90;0.90;;;;;;;8.98;77.20;95810.22;4997295;28;20567;-72
2023/12/13 11:17:07;;;;;;;0.85;0.85;;;;;;;9.02;77.61;95810.59;5020091;28;20176;-72
2023/12/13 11:19:37;;;;;;;0.65;0.65;;;;;;;8.91;76.33;95806.88;4994004;28;20038;-74
2023/12/13 11:22:06;;;;;;;0.77;0.77;;;;;;;8.86;77.81;95806.72;5023358;28;20046;-72
2023/12/13 11:24:36;;;;;;;0.93;0.93;;;;;;;8.82;78.05;95803.69;5000243;28;20050;-72
2023/12/13 11:27:10;;;;;;;0.73;0.73;;;;;;;8.75;78.46;95799.53;4996022;28;20081;-73
2023/12/13 11:29:44;;;;;;;0.63;0.63;;;;;;;8.68;78.75;95806.81;4992153;28;20499;-73
2023/12/13 11:32:11;;;;;;;0.30;0.30;;;;;;;8.68;78.24;95790.84;4995543;28;20428;-73
2023/12/13 11:34:42;;;;;;;0.88;0.88;;;;;;;8.64;78.74;95802.97;5003383;28;20543;-72
2023/12/13 11:37:12;;;;;;;0.70;0.70;;;;;;;8.64;79.47;95801.13;4994577;28;20054;-72
2023/12/13 11:39:41;;;;;;;0.90;0.90;;;;;;;8.67;79.99;95797.19;5002162;28;20117;-72
2023/12/13 11:42:10;;;;;;;0.90;0.90;;;;;;;8.75;80.24;95802.19;5004158;28;20050;-72
2023/12/13 11:44:40;;;;;;;0.50;0.50;;;;;;;8.75;79.24;95797.69;5015682;28;20360;-72
2023/12/13 11:47:10;;;;;;;0.50;0.50;;;;;;;8.72;79.72;95805.31;5001449;28;20427;-71